Friday, January 19, 2018, 2:41 AM EST
Back to Local

KLWM, Lawrence Municipal Airport

Location: North Andover, MA, United States Lat: 42.717
Local Time: 2:41 AM EST ( 7:41 GMT) Lon: -71.133
Time Zone: US/Eastern Elev: 147 ft

Show me the last for .
Show Decoded

2018-01-19 01:54 METAR KLWM 190654Z AUTO 21004KT 10SM CLR M06/M10 A2995 RMK AO2 SLP142 T10611100
                 =
2018-01-19 00:54 METAR KLWM 190554Z AUTO 19004KT 10SM CLR M06/M09 A2993 RMK AO2 SLP135 T10561094
                 11028 21078 58010 =
2018-01-18 23:54 METAR KLWM 190454Z AUTO 22003KT 10SM CLR M07/M10 A2995 RMK AO2 SLP143 T10671100
                 400001078 =
2018-01-18 22:54 METAR KLWM 190354Z AUTO 00000KT 10SM CLR M06/M09 A2996 RMK AO2 SLP146 T10611094
                 =
2018-01-18 21:54 METAR KLWM 190254Z 24003KT 10SM CLR M04/M09 A2995 RMK AO2 SLP145 T10441089 53010
                 =
2018-01-18 20:54 METAR KLWM 190154Z 00000KT 10SM OVC039 M03/M09 A2994 RMK AO2 SLP141 T10331089 =
2018-01-18 19:54 METAR KLWM 190054Z 28003KT 10SM OVC041 M03/M09 A2993 RMK AO2 SLP137 T10281089 =
2018-01-18 18:54 METAR KLWM 182354Z 27003KT 10SM BKN042 M03/M08 A2992 RMK AO2 SLP134 T10281083
                 11006 21028 53016 =
2018-01-18 17:54 METAR KLWM 182254Z 29004KT 10SM CLR M02/M09 A2991 RMK AO2 SLP128 T10221089 =
2018-01-18 16:54 METAR KLWM 182154Z 30003KT 10SM CLR M02/M09 A2989 RMK AO2 SLP123 T10171089 =
2018-01-18 15:54 METAR KLWM 182054Z 30008KT 10SM CLR M01/M09 A2988 RMK AO2 SLP119 T10111089 55009
                 =
2018-01-18 14:54 METAR KLWM 181954Z 30007KT 10SM CLR M01/M09 A2986 RMK AO2 SLP112 T10111089 =
2018-01-18 13:54 METAR KLWM 181854Z 30011KT 10SM CLR M01/M09 A2987 RMK AO2 SLP116 T10111089 =
2018-01-18 12:54 METAR KLWM 181754Z 29012G17KT 10SM CLR M02/M09 A2990 RMK AO2 SLP127 T10171089
                 11017 21072 58022 =
2018-01-18 11:54 METAR KLWM 181654Z 32009KT 10SM CLR M02/M09 A2993 RMK AO2 SLP138 T10221094 =
2018-01-18 10:54 METAR KLWM 181554Z 30010KT 10SM CLR M03/M09 A2996 RMK AO2 SLP146 T10331094 =
2018-01-18 09:54 METAR KLWM 181454Z 29008KT 10SM CLR M04/M10 A2997 RMK AO2 SLP150 T10441100 56005
                 =
2018-01-18 08:54 METAR KLWM 181354Z 30008KT 10SM CLR M06/M11 A2997 RMK AO2 SLP150 T10561106 =
2018-01-18 07:54 METAR KLWM 181254Z 26006KT 10SM CLR M06/M11 A2997 RMK AO2 SLP152 T10611106 =
2018-01-18 06:54 METAR KLWM 181154Z VRB03KT 10SM CLR M06/M11 A2999 RMK AO2 SLP155 70006 T10611106
                 11006 21061 55005 =
2018-01-18 05:54 METAR KLWM 181054Z AUTO 29006KT 10SM CLR M06/M09 A2997 RMK AO2 SLP150 T10561094
                 =
2018-01-18 04:54 METAR KLWM 180954Z AUTO 00000KT 10SM CLR M04/M09 A2998 RMK AO2 SLP153 T10441089
                 =
2018-01-18 03:54 METAR KLWM 180854Z AUTO 27007KT 10SM CLR M04/M07 A3000 RMK AO2 SLP160 T10391072
                 58012 =
2018-01-18 02:54 METAR KLWM 180754Z AUTO 27005KT 10SM CLR M03/M07 A3002 RMK AO2 SLP166 T10331067
                 =

Support USWX by starting your Amazon purchase here.